createdAt,value
2023-01-04T00:00:46.464Z,8.70
2023-01-04T00:03:49.844Z,8.64
2023-01-04T00:06:52.217Z,8.50
2023-01-04T00:09:54.782Z,8.47
2023-01-04T00:12:57.118Z,8.43
2023-01-04T00:16:08.004Z,8.60
2023-01-04T00:19:12.272Z,8.53
2023-01-04T00:22:15.088Z,8.54
2023-01-04T00:25:17.687Z,8.52
2023-01-04T00:28:20.280Z,8.51
2023-01-04T00:31:24.004Z,8.27
2023-01-04T00:34:26.764Z,8.32
2023-01-04T00:37:29.196Z,8.36
2023-01-04T00:40:31.785Z,8.41
2023-01-04T00:43:34.413Z,8.40
2023-01-04T00:46:37.784Z,8.37
2023-01-04T00:49:40.373Z,8.30
2023-01-04T00:52:43.034Z,8.15
2023-01-04T00:55:45.993Z,8.24
2023-01-04T00:58:48.890Z,8.21
2023-01-04T01:01:51.835Z,8.11
2023-01-04T01:04:54.749Z,8.11
2023-01-04T01:07:57.312Z,8.05
2023-01-04T01:11:09.362Z,7.85
2023-01-04T01:14:17.032Z,7.91
2023-01-04T01:17:20.019Z,7.75
2023-01-04T01:20:23.065Z,7.82
2023-01-04T01:23:26.077Z,7.73
2023-01-04T01:26:28.440Z,7.89
2023-01-04T01:29:31.128Z,7.84
2023-01-04T01:32:33.447Z,7.67
2023-01-04T01:35:37.094Z,7.76
2023-01-04T01:38:39.606Z,7.52
2023-01-04T01:41:42.298Z,7.72
2023-01-04T01:44:45.691Z,7.72
2023-01-04T01:47:50.563Z,7.68
2023-01-04T01:51:02.722Z,7.67
2023-01-04T01:54:10.709Z,7.62
2023-01-04T01:57:18.335Z,7.42
2023-01-04T02:00:21.225Z,7.46
2023-01-04T02:03:32.192Z,7.56
2023-01-04T02:06:39.607Z,7.58
2023-01-04T02:09:44.289Z,7.40
2023-01-04T02:12:47.509Z,7.36
2023-01-04T02:16:37.606Z,7.41
2023-01-04T02:20:02.132Z,7.40
2023-01-04T02:24:02.292Z,7.39
2023-01-04T02:27:36.639Z,7.37
2023-01-04T02:30:44.733Z,7.09
2023-01-04T02:34:13.119Z,7.24
2023-01-04T02:37:30.291Z,7.22
2023-01-04T02:41:05.005Z,7.20
2023-01-04T02:44:39.720Z,7.20
2023-01-04T02:48:12.197Z,7.18
2023-01-04T02:51:32.646Z,6.93
2023-01-04T02:54:36.212Z,7.14
2023-01-04T02:57:56.885Z,7.12
2023-01-04T03:01:40.941Z,7.13
2023-01-04T03:05:23.344Z,7.10
2023-01-04T03:08:35.734Z,7.09
2023-01-04T03:12:04.232Z,7.00
2023-01-04T03:15:31.027Z,6.92
2023-01-04T03:18:38.009Z,6.92
2023-01-04T03:21:45.048Z,7.07
2023-01-04T03:25:06.708Z,6.88
2023-01-04T03:28:30.931Z,6.88
2023-01-04T03:31:57.051Z,6.98
2023-01-04T03:35:18.737Z,6.77
2023-01-04T03:39:01.020Z,6.95
2023-01-04T03:42:22.086Z,6.93
2023-01-04T03:45:49.420Z,6.95
2023-01-04T03:49:11.686Z,6.94
2023-01-04T03:52:16.047Z,6.80
2023-01-04T03:55:19.095Z,6.68
2023-01-04T03:58:21.900Z,6.64
2023-01-04T04:01:27.140Z,6.76
2023-01-04T04:04:48.721Z,6.64
2023-01-04T04:08:09.618Z,6.61
2023-01-04T04:11:30.733Z,6.82
2023-01-04T04:14:33.067Z,6.67
2023-01-04T04:17:35.823Z,6.50
2023-01-04T04:20:38.180Z,6.67
2023-01-04T04:23:40.930Z,6.83
2023-01-04T04:26:43.273Z,6.82
2023-01-04T04:29:45.855Z,6.67
2023-01-04T04:32:48.207Z,6.52
2023-01-04T04:35:55.123Z,6.59
2023-01-04T04:38:57.546Z,6.63
2023-01-04T04:42:00.285Z,6.62
2023-01-04T04:45:02.627Z,6.60
2023-01-04T04:48:05.352Z,6.78
2023-01-04T04:51:07.809Z,6.70
2023-01-04T04:54:11.897Z,6.67
2023-01-04T04:57:14.213Z,6.74
2023-01-04T05:00:17.329Z,6.66
2023-01-04T05:03:19.759Z,6.57
2023-01-04T05:06:22.633Z,6.67
2023-01-04T05:09:25.039Z,6.65
2023-01-04T05:12:55.798Z,6.42
2023-01-04T05:16:00.345Z,6.51
2023-01-04T05:19:03.019Z,6.34
2023-01-04T05:22:05.320Z,6.23
2023-01-04T05:25:08.634Z,6.20
2023-01-04T05:28:11.600Z,6.35
2023-01-04T05:31:14.835Z,6.34
2023-01-04T05:34:22.061Z,6.29
2023-01-04T05:37:25.858Z,6.10
2023-01-04T05:40:28.389Z,6.02
2023-01-04T05:43:31.987Z,6.21
2023-01-04T05:46:34.304Z,6.18
2023-01-04T05:49:37.384Z,5.94
2023-01-04T05:52:39.774Z,6.08
2023-01-04T05:55:42.371Z,6.10
2023-01-04T05:58:44.721Z,5.98
2023-01-04T06:01:47.434Z,6.09
2023-01-04T06:04:56.386Z,6.10
2023-01-04T06:08:00.648Z,5.92
2023-01-04T06:11:03.342Z,5.91
2023-01-04T06:14:05.703Z,5.88
2023-01-04T06:17:08.893Z,6.03
2023-01-04T06:20:11.720Z,5.99
2023-01-04T06:23:14.587Z,5.97
2023-01-04T06:26:16.959Z,5.96
2023-01-04T06:29:19.649Z,5.78
2023-01-04T06:32:21.957Z,5.89
2023-01-04T06:35:24.607Z,5.69
2023-01-04T06:38:27.829Z,5.81
2023-01-04T06:41:30.533Z,5.68
2023-01-04T06:44:32.916Z,5.68
2023-01-04T06:47:35.567Z,5.80
2023-01-04T06:50:37.930Z,5.82
2023-01-04T06:53:41.326Z,5.80
2023-01-04T06:56:44.228Z,5.65
2023-01-04T06:59:46.893Z,5.80
2023-01-04T07:03:12.435Z,5.79
2023-01-04T07:06:12.344Z,5.69
2023-01-04T07:09:14.675Z,5.62
2023-01-04T07:12:17.350Z,5.63
2023-01-04T07:15:38.846Z,5.87
2023-01-04T07:18:42.695Z,5.73
2023-01-04T07:21:45.306Z,5.96
2023-01-04T07:24:48.521Z,5.90
2023-01-04T07:27:55.168Z,5.85
2023-01-04T07:30:57.898Z,5.90
2023-01-04T07:34:00.246Z,5.95
2023-01-04T07:37:03.306Z,5.89
2023-01-04T07:40:06.592Z,5.91
2023-01-04T07:43:09.203Z,5.89
2023-01-04T07:46:12.274Z,6.26
2023-01-04T07:49:20.870Z,6.26
2023-01-04T07:52:23.399Z,6.35
2023-01-04T07:55:26.073Z,6.22
2023-01-04T07:58:32.422Z,6.22
2023-01-04T08:01:35.757Z,6.27
2023-01-04T08:04:38.605Z,6.49
2023-01-04T08:07:40.953Z,6.50
2023-01-04T08:10:43.712Z,6.45
2023-01-04T08:13:46.345Z,6.73
2023-01-04T08:16:48.959Z,6.89
2023-01-04T08:19:51.337Z,7.01
2023-01-04T08:22:54.053Z,7.01
2023-01-04T08:25:56.381Z,7.50
2023-01-04T08:28:59.536Z,7.67
2023-01-04T08:32:01.916Z,7.89
2023-01-04T08:35:04.953Z,8.18
2023-01-04T08:38:47.231Z,8.43
2023-01-04T08:44:59.767Z,9.39
2023-01-04T08:48:02.767Z,9.81
2023-01-04T08:51:08.672Z,10.08
2023-01-04T08:54:11.689Z,10.45
2023-01-04T08:57:14.056Z,10.68
2023-01-04T09:00:19.176Z,11.23
2023-01-04T09:03:21.536Z,11.70
2023-01-04T09:06:24.571Z,11.97
2023-01-04T09:09:26.843Z,12.32
2023-01-04T09:12:29.563Z,12.61
2023-01-04T09:15:35.262Z,12.89
2023-01-04T09:18:38.314Z,13.22
2023-01-04T09:21:41.412Z,13.56
2023-01-04T09:24:44.222Z,13.65
2023-01-04T09:27:46.538Z,14.15
2023-01-04T09:30:49.203Z,14.59
2023-01-04T09:37:14.908Z,14.78
2023-01-04T09:40:25.089Z,15.50
2023-01-04T09:43:33.498Z,15.92
2023-01-04T09:46:53.389Z,16.00
2023-01-04T09:50:05.013Z,15.92
2023-01-04T09:53:23.351Z,16.67
2023-01-04T09:56:30.280Z,16.87
2023-01-04T09:59:34.205Z,16.82
2023-01-04T10:02:48.464Z,16.79
2023-01-04T10:05:54.144Z,16.78
2023-01-04T10:09:07.063Z,17.50
2023-01-04T10:12:22.077Z,17.66
2023-01-04T10:15:41.407Z,17.10
2023-01-04T10:20:16.291Z,16.94
2023-01-04T10:22:52.015Z,17.33
2023-01-04T10:25:56.532Z,18.16
2023-01-04T10:29:09.892Z,18.83
2023-01-04T10:32:31.381Z,19.01
2023-01-04T10:35:36.232Z,19.09
2023-01-04T10:38:40.958Z,18.89
2023-01-04T10:41:50.647Z,18.74
2023-01-04T10:45:08.609Z,19.14
2023-01-04T10:48:26.248Z,18.87
2023-01-04T10:51:44.696Z,18.39
2023-01-04T10:54:49.080Z,18.05
2023-01-04T10:57:59.821Z,18.63
2023-01-04T11:01:30.021Z,19.33
2023-01-04T11:04:38.782Z,19.86
2023-01-04T11:08:11.652Z,19.80
2023-01-04T11:11:23.053Z,20.47
2023-01-04T11:14:33.277Z,20.93
2023-01-04T11:17:41.584Z,21.40
2023-01-04T11:20:44.437Z,21.18
2023-01-04T11:23:46.774Z,20.22
2023-01-04T11:26:52.167Z,18.91
2023-01-04T11:30:25.810Z,18.38
2023-01-04T11:33:28.541Z,18.46
2023-01-04T11:36:42.245Z,18.43
2023-01-04T11:39:44.889Z,18.41
2023-01-04T11:42:52.470Z,18.08
2023-01-04T11:46:00.437Z,17.79
2023-01-04T11:49:02.841Z,17.59
2023-01-04T11:52:08.491Z,17.17
2023-01-04T11:55:28.109Z,16.53
2023-01-04T11:58:30.771Z,16.63
2023-01-04T12:01:37.236Z,16.44
2023-01-04T12:04:39.916Z,16.66
2023-01-04T12:07:42.446Z,17.28
2023-01-04T12:10:45.135Z,17.63
2023-01-04T12:13:47.708Z,17.75
2023-01-04T12:17:15.257Z,17.96
2023-01-04T12:20:20.298Z,18.10
2023-01-04T12:23:23.363Z,18.34
2023-01-04T12:26:26.300Z,18.83
2023-01-04T12:29:43.898Z,19.30
2023-01-04T12:32:46.934Z,19.75
2023-01-04T12:36:04.992Z,20.03
2023-01-04T12:39:16.314Z,20.11
2023-01-04T12:42:27.564Z,20.18
2023-01-04T12:45:29.883Z,20.35
2023-01-04T12:48:54.210Z,20.06
2023-01-04T12:55:31.484Z,20.49
2023-01-04T12:59:06.848Z,20.17
2023-01-04T13:02:16.585Z,19.63
2023-01-04T13:05:54.998Z,18.38
2023-01-04T13:08:42.803Z,17.63
2023-01-04T13:12:03.819Z,17.14
2023-01-04T13:15:19.510Z,16.63
2023-01-04T13:18:36.765Z,16.06
2023-01-04T13:21:42.331Z,15.52
2023-01-04T13:24:46.005Z,15.11
2023-01-04T13:28:05.220Z,14.83
2023-01-04T13:31:08.185Z,14.59
2023-01-04T13:34:34.513Z,14.30
2023-01-04T13:37:46.035Z,13.73
2023-01-04T13:40:49.752Z,13.72
2023-01-04T13:44:25.990Z,13.47
2023-01-04T13:47:36.969Z,13.03
2023-01-04T13:50:47.652Z,12.47
2023-01-04T13:53:58.363Z,12.16
2023-01-04T13:57:09.544Z,11.72
2023-01-04T14:00:14.274Z,11.25
2023-01-04T14:03:46.062Z,11.11
2023-01-04T14:06:52.960Z,10.94
2023-01-04T14:09:59.990Z,10.65
2023-01-04T14:13:03.578Z,10.51
2023-01-04T14:16:12.776Z,10.39
2023-01-04T14:19:50.707Z,10.07
2023-01-04T14:22:56.309Z,10.11
2023-01-04T14:25:58.925Z,10.03
2023-01-04T14:29:21.669Z,9.97
2023-01-04T14:32:24.913Z,9.94
2023-01-04T14:35:29.016Z,9.93
2023-01-04T14:38:56.082Z,9.61
2023-01-04T14:42:00.094Z,9.61
2023-01-04T14:45:06.243Z,9.40
2023-01-04T14:48:10.932Z,9.30
2023-01-04T14:51:17.722Z,9.18
2023-01-04T14:54:25.074Z,9.09
2023-01-04T14:57:27.534Z,8.83
2023-01-04T15:00:30.247Z,9.06
2023-01-04T15:03:32.691Z,9.07
2023-01-04T15:06:35.944Z,9.09
2023-01-04T15:09:38.263Z,8.88
2023-01-04T15:12:40.879Z,8.96
2023-01-04T15:15:43.630Z,8.85
2023-01-04T15:18:47.256Z,8.68
2023-01-04T15:21:49.545Z,8.57
2023-01-04T15:24:52.231Z,8.62
2023-01-04T15:27:54.565Z,8.49
2023-01-04T15:30:57.961Z,8.64
2023-01-04T15:34:00.396Z,8.62
2023-01-04T15:37:03.069Z,8.54
2023-01-04T15:40:05.988Z,8.61
2023-01-04T15:43:10.738Z,8.46
2023-01-04T15:46:13.553Z,8.34
2023-01-04T15:49:17.880Z,8.34
2023-01-04T15:52:20.544Z,8.32
2023-01-04T15:55:23.558Z,8.10
2023-01-04T15:58:25.892Z,8.02
2023-01-04T16:01:28.582Z,7.73
2023-01-04T16:04:31.276Z,7.70
2023-01-04T16:07:36.384Z,7.80
2023-01-04T16:10:39.565Z,7.64
2023-01-04T16:13:42.690Z,7.71
2023-01-04T16:16:45.415Z,7.69
2023-01-04T16:19:47.871Z,7.75
2023-01-04T16:22:50.556Z,7.63
2023-01-04T16:26:10.584Z,7.47
2023-01-04T16:29:13.368Z,7.85
2023-01-04T16:32:16.595Z,7.63
2023-01-04T16:35:19.228Z,7.79
2023-01-04T16:38:21.734Z,7.68
2023-01-04T16:41:25.159Z,7.60
2023-01-04T16:44:27.766Z,7.67
2023-01-04T16:47:38.000Z,7.63
2023-01-04T16:50:40.368Z,7.66
2023-01-04T16:53:43.158Z,7.42
2023-01-04T16:56:49.196Z,7.48
2023-01-04T16:59:51.955Z,7.40
2023-01-04T17:02:54.335Z,7.53
2023-01-04T17:05:57.120Z,7.29
2023-01-04T17:09:00.577Z,7.49
2023-01-04T17:12:36.749Z,7.42
2023-01-04T17:15:43.416Z,7.38
2023-01-04T17:18:47.515Z,7.21
2023-01-04T17:21:49.927Z,7.06
2023-01-04T17:24:52.625Z,6.80
2023-01-04T17:27:54.933Z,6.63
2023-01-04T17:30:57.797Z,6.29
2023-01-04T17:34:00.644Z,6.27
2023-01-04T17:37:03.303Z,6.03
2023-01-04T17:40:06.210Z,6.11
2023-01-04T17:43:09.818Z,6.31
2023-01-04T17:46:19.129Z,5.96
2023-01-04T17:49:31.318Z,5.92
2023-01-04T17:52:34.051Z,5.77
2023-01-04T17:55:36.738Z,5.84
2023-01-04T17:58:39.992Z,5.87
2023-01-04T18:01:42.806Z,6.10
2023-01-04T18:04:45.562Z,6.03
2023-01-04T18:07:47.875Z,6.02
2023-01-04T18:11:06.897Z,6.20
2023-01-04T18:14:14.084Z,6.25
2023-01-04T18:17:17.141Z,6.12
2023-01-04T18:20:24.669Z,6.11
2023-01-04T18:23:29.546Z,6.11
2023-01-04T18:26:37.048Z,6.22
2023-01-04T18:29:55.570Z,6.21
2023-01-04T18:32:57.979Z,6.05
2023-01-04T18:36:05.765Z,6.13
2023-01-04T18:39:11.053Z,6.34
2023-01-04T18:42:13.736Z,6.27
2023-01-04T18:45:17.472Z,6.35
2023-01-04T18:48:20.038Z,6.44
2023-01-04T18:51:22.654Z,6.58
2023-01-04T18:54:25.434Z,6.43
2023-01-04T18:57:27.834Z,6.65
2023-01-04T19:00:30.619Z,6.67
2023-01-04T19:03:35.939Z,6.67
2023-01-04T19:06:39.382Z,6.76
2023-01-04T19:09:42.770Z,6.49
2023-01-04T19:12:45.596Z,6.44
2023-01-04T19:15:48.007Z,6.52
2023-01-04T19:18:50.795Z,6.77
2023-01-04T19:21:54.388Z,6.11
2023-01-04T19:24:59.753Z,6.75
2023-01-04T19:28:03.656Z,6.79
2023-01-04T19:31:08.709Z,6.87
2023-01-04T19:34:11.232Z,6.83
2023-01-04T19:37:14.025Z,6.87
2023-01-04T19:40:16.602Z,6.89
2023-01-04T19:43:19.295Z,6.81
2023-01-04T19:46:21.645Z,6.82
2023-01-04T19:49:24.871Z,7.01
2023-01-04T19:52:27.598Z,7.01
2023-01-04T19:55:30.265Z,6.83
2023-01-04T19:58:32.616Z,6.96
2023-01-04T20:01:37.785Z,6.81
2023-01-04T20:04:40.537Z,6.97
2023-01-04T20:07:45.864Z,6.98
2023-01-04T20:10:56.348Z,6.99
2023-01-04T20:13:58.787Z,6.82
2023-01-04T20:17:01.579Z,6.98
2023-01-04T20:20:04.141Z,6.90
2023-01-04T20:23:07.991Z,6.86
2023-01-04T20:26:16.002Z,6.83
2023-01-04T20:29:18.696Z,6.98
2023-01-04T20:32:21.077Z,6.85
2023-01-04T20:35:24.688Z,6.84
2023-01-04T20:38:27.017Z,6.89
2023-01-04T20:41:32.369Z,7.01
2023-01-04T20:44:35.173Z,7.10
2023-01-04T20:47:37.821Z,7.04
2023-01-04T20:50:41.523Z,7.08
2023-01-04T20:53:44.309Z,7.05
2023-01-04T20:56:46.538Z,7.02
2023-01-04T20:59:49.173Z,6.85
2023-01-04T21:02:51.736Z,7.04
2023-01-04T21:05:55.538Z,7.02
2023-01-04T21:08:57.960Z,6.94
2023-01-04T21:12:04.883Z,6.94
2023-01-04T21:15:09.649Z,6.88
2023-01-04T21:18:12.609Z,6.76
2023-01-04T21:21:17.176Z,6.95
2023-01-04T21:24:19.820Z,6.80
2023-01-04T21:27:22.405Z,7.00
2023-01-04T21:30:25.032Z,6.85
2023-01-04T21:33:27.455Z,6.93
2023-01-04T21:36:30.151Z,6.92
2023-01-04T21:39:32.604Z,6.73
2023-01-04T21:42:35.709Z,6.71
2023-01-04T21:45:39.769Z,6.67
2023-01-04T21:48:43.886Z,6.72
2023-01-04T21:51:46.219Z,6.68
2023-01-04T21:54:49.095Z,6.70
2023-01-04T21:57:51.412Z,6.71
2023-01-04T22:00:54.392Z,6.88
2023-01-04T22:03:57.217Z,6.84
2023-01-04T22:06:59.747Z,6.78
2023-01-04T22:10:02.400Z,6.93
2023-01-04T22:13:04.767Z,6.79
2023-01-04T22:16:10.111Z,6.74
2023-01-04T22:19:13.559Z,6.80
2023-01-04T22:22:16.139Z,6.98
2023-01-04T22:25:18.537Z,7.03
2023-01-04T22:28:21.133Z,7.09
2023-01-04T22:31:26.423Z,7.10
2023-01-04T22:34:29.094Z,7.17
2023-01-04T22:37:31.396Z,7.03
2023-01-04T22:40:34.577Z,7.09
2023-01-04T22:43:37.153Z,7.20
2023-01-04T22:46:39.899Z,7.19
2023-01-04T22:49:42.307Z,7.14
2023-01-04T22:52:50.801Z,7.24
2023-01-04T22:56:18.275Z,7.29
2023-01-04T22:59:16.056Z,7.22
2023-01-04T23:02:18.414Z,7.44
2023-01-04T23:05:21.059Z,7.46
2023-01-04T23:08:24.787Z,7.49
2023-01-04T23:11:30.392Z,7.49
2023-01-04T23:14:33.433Z,7.50
2023-01-04T23:17:36.008Z,7.57
2023-01-04T23:20:38.375Z,7.45
2023-01-04T23:23:41.558Z,7.49
2023-01-04T23:26:44.502Z,7.49
2023-01-04T23:29:47.203Z,7.68
2023-01-04T23:32:49.538Z,7.68
2023-01-04T23:35:52.206Z,7.76
2023-01-04T23:38:57.017Z,7.78
2023-01-04T23:41:59.605Z,7.67
2023-01-04T23:45:02.156Z,7.82
2023-01-04T23:48:05.021Z,7.64
2023-01-04T23:51:07.685Z,7.65
2023-01-04T23:54:10.899Z,7.88
2023-01-04T23:57:13.232Z,7.81
